sensor_id;sensor_type;location;lat;lon;timestamp;P1;durP1;ratioP1;P2;durP2;ratioP2
4377;SDS011;2203;53.686;9.994;2022-08-25T00:01:10;10.13;;;3.53;;
4377;SDS011;2203;53.686;9.994;2022-08-25T00:03:44;10.23;;;3.40;;
4377;SDS011;2203;53.686;9.994;2022-08-25T00:06:10;6.47;;;3.40;;
4377;SDS011;2203;53.686;9.994;2022-08-25T00:08:36;10.00;;;3.67;;
4377;SDS011;2203;53.686;9.994;2022-08-25T00:11:06;7.90;;;3.70;;
4377;SDS011;2203;53.686;9.994;2022-08-25T00:13:35;7.30;;;3.43;;
4377;SDS011;2203;53.686;9.994;2022-08-25T00:16:01;16.93;;;4.10;;
4377;SDS011;2203;53.686;9.994;2022-08-25T00:18:27;7.30;;;3.60;;
4377;SDS011;2203;53.686;9.994;2022-08-25T00:20:52;8.27;;;3.37;;
4377;SDS011;2203;53.686;9.994;2022-08-25T00:23:18;7.20;;;3.83;;
4377;SDS011;2203;53.686;9.994;2022-08-25T00:25:44;6.00;;;3.57;;
4377;SDS011;2203;53.686;9.994;2022-08-25T00:28:09;14.80;;;3.60;;
4377;SDS011;2203;53.686;9.994;2022-08-25T00:30:35;7.60;;;3.53;;
4377;SDS011;2203;53.686;9.994;2022-08-25T00:33:01;10.27;;;3.70;;
4377;SDS011;2203;53.686;9.994;2022-08-25T00:35:27;9.47;;;3.90;;
4377;SDS011;2203;53.686;9.994;2022-08-25T00:37:53;7.20;;;3.70;;
4377;SDS011;2203;53.686;9.994;2022-08-25T00:40:18;4.80;;;3.80;;
4377;SDS011;2203;53.686;9.994;2022-08-25T00:42:44;13.17;;;3.53;;
4377;SDS011;2203;53.686;9.994;2022-08-25T00:45:10;6.33;;;2.90;;
4377;SDS011;2203;53.686;9.994;2022-08-25T00:47:36;7.40;;;3.70;;
4377;SDS011;2203;53.686;9.994;2022-08-25T00:50:02;10.57;;;3.53;;
4377;SDS011;2203;53.686;9.994;2022-08-25T00:52:35;5.77;;;3.30;;
4377;SDS011;2203;53.686;9.994;2022-08-25T00:55:08;8.73;;;3.50;;
4377;SDS011;2203;53.686;9.994;2022-08-25T00:57:40;5.30;;;3.93;;
4377;SDS011;2203;53.686;9.994;2022-08-25T01:00:10;17.03;;;4.50;;
4377;SDS011;2203;53.686;9.994;2022-08-25T01:02:41;17.43;;;3.87;;
4377;SDS011;2203;53.686;9.994;2022-08-25T01:05:07;11.53;;;3.60;;
4377;SDS011;2203;53.686;9.994;2022-08-25T01:07:32;12.63;;;4.13;;
4377;SDS011;2203;53.686;9.994;2022-08-25T01:09:58;7.77;;;3.90;;
4377;SDS011;2203;53.686;9.994;2022-08-25T01:12:24;6.07;;;4.03;;
4377;SDS011;2203;53.686;9.994;2022-08-25T01:14:49;6.40;;;4.13;;
4377;SDS011;2203;53.686;9.994;2022-08-25T01:17:15;11.03;;;3.97;;
4377;SDS011;2203;53.686;9.994;2022-08-25T01:19:41;7.17;;;4.10;;
4377;SDS011;2203;53.686;9.994;2022-08-25T01:22:06;8.00;;;3.90;;
4377;SDS011;2203;53.686;9.994;2022-08-25T01:27:03;5.00;;;3.70;;
4377;SDS011;2203;53.686;9.994;2022-08-25T01:29:30;10.33;;;3.80;;
4377;SDS011;2203;53.686;9.994;2022-08-25T01:31:56;11.63;;;4.37;;
4377;SDS011;2203;53.686;9.994;2022-08-25T01:34:28;7.67;;;4.10;;
4377;SDS011;2203;53.686;9.994;2022-08-25T01:36:56;16.67;;;4.53;;
4377;SDS011;2203;53.686;9.994;2022-08-25T01:39:22;9.17;;;4.60;;
4377;SDS011;2203;53.686;9.994;2022-08-25T01:44:18;8.97;;;3.37;;
4377;SDS011;2203;53.686;9.994;2022-08-25T01:46:44;7.90;;;3.77;;
4377;SDS011;2203;53.686;9.994;2022-08-25T01:49:10;8.73;;;3.70;;
4377;SDS011;2203;53.686;9.994;2022-08-25T01:51:41;5.87;;;3.97;;
4377;SDS011;2203;53.686;9.994;2022-08-25T01:54:08;9.13;;;4.17;;
4377;SDS011;2203;53.686;9.994;2022-08-25T01:56:34;11.00;;;4.70;;
4377;SDS011;2203;53.686;9.994;2022-08-25T01:59:00;11.20;;;3.60;;
4377;SDS011;2203;53.686;9.994;2022-08-25T02:01:25;15.87;;;4.63;;
4377;SDS011;2203;53.686;9.994;2022-08-25T02:03:51;13.67;;;4.33;;
4377;SDS011;2203;53.686;9.994;2022-08-25T02:06:23;6.87;;;3.83;;
4377;SDS011;2203;53.686;9.994;2022-08-25T02:08:58;8.73;;;4.13;;
4377;SDS011;2203;53.686;9.994;2022-08-25T02:11:31;8.13;;;3.77;;
4377;SDS011;2203;53.686;9.994;2022-08-25T02:13:57;8.67;;;4.53;;
4377;SDS011;2203;53.686;9.994;2022-08-25T02:16:24;12.17;;;5.20;;
4377;SDS011;2203;53.686;9.994;2022-08-25T02:18:53;8.90;;;4.13;;
4377;SDS011;2203;53.686;9.994;2022-08-25T02:21:19;11.67;;;4.40;;
4377;SDS011;2203;53.686;9.994;2022-08-25T02:23:44;18.13;;;4.83;;
4377;SDS011;2203;53.686;9.994;2022-08-25T02:26:10;10.93;;;4.33;;
4377;SDS011;2203;53.686;9.994;2022-08-25T02:28:36;10.27;;;4.60;;
4377;SDS011;2203;53.686;9.994;2022-08-25T02:31:02;8.70;;;4.07;;
4377;SDS011;2203;53.686;9.994;2022-08-25T02:33:29;14.40;;;4.37;;
4377;SDS011;2203;53.686;9.994;2022-08-25T02:35:58;9.70;;;4.30;;
4377;SDS011;2203;53.686;9.994;2022-08-25T02:38:24;8.10;;;4.53;;
4377;SDS011;2203;53.686;9.994;2022-08-25T02:40:51;8.53;;;4.73;;
4377;SDS011;2203;53.686;9.994;2022-08-25T02:43:18;10.57;;;4.60;;
4377;SDS011;2203;53.686;9.994;2022-08-25T02:45:43;9.13;;;4.00;;
4377;SDS011;2203;53.686;9.994;2022-08-25T02:48:08;16.10;;;5.30;;
4377;SDS011;2203;53.686;9.994;2022-08-25T02:50:34;12.10;;;4.57;;
4377;SDS011;2203;53.686;9.994;2022-08-25T02:53:00;8.57;;;3.80;;
4377;SDS011;2203;53.686;9.994;2022-08-25T02:55:26;5.27;;;4.30;;
4377;SDS011;2203;53.686;9.994;2022-08-25T02:57:51;10.97;;;5.53;;
4377;SDS011;2203;53.686;9.994;2022-08-25T03:00:17;13.20;;;4.23;;
4377;SDS011;2203;53.686;9.994;2022-08-25T03:02:43;13.00;;;4.40;;
4377;SDS011;2203;53.686;9.994;2022-08-25T03:05:10;5.83;;;4.13;;
4377;SDS011;2203;53.686;9.994;2022-08-25T03:07:36;12.77;;;4.27;;
4377;SDS011;2203;53.686;9.994;2022-08-25T03:10:07;6.03;;;4.37;;
4377;SDS011;2203;53.686;9.994;2022-08-25T03:12:34;10.43;;;4.33;;
4377;SDS011;2203;53.686;9.994;2022-08-25T03:14:59;9.70;;;4.57;;
4377;SDS011;2203;53.686;9.994;2022-08-25T03:17:25;6.00;;;4.70;;
4377;SDS011;2203;53.686;9.994;2022-08-25T03:19:50;9.20;;;4.70;;
4377;SDS011;2203;53.686;9.994;2022-08-25T03:22:16;10.50;;;4.90;;
4377;SDS011;2203;53.686;9.994;2022-08-25T03:24:41;11.03;;;4.47;;
4377;SDS011;2203;53.686;9.994;2022-08-25T03:27:07;9.27;;;4.90;;
4377;SDS011;2203;53.686;9.994;2022-08-25T03:29:33;7.10;;;5.17;;
4377;SDS011;2203;53.686;9.994;2022-08-25T03:31:58;10.77;;;4.30;;
4377;SDS011;2203;53.686;9.994;2022-08-25T03:34:25;14.20;;;5.47;;
4377;SDS011;2203;53.686;9.994;2022-08-25T03:36:52;8.30;;;4.37;;
4377;SDS011;2203;53.686;9.994;2022-08-25T03:39:19;6.77;;;4.33;;
4377;SDS011;2203;53.686;9.994;2022-08-25T03:41:46;10.93;;;4.77;;
4377;SDS011;2203;53.686;9.994;2022-08-25T03:44:12;12.07;;;4.67;;
4377;SDS011;2203;53.686;9.994;2022-08-25T03:46:39;16.70;;;4.80;;
4377;SDS011;2203;53.686;9.994;2022-08-25T03:49:06;7.80;;;4.40;;
4377;SDS011;2203;53.686;9.994;2022-08-25T03:51:35;8.73;;;4.40;;
4377;SDS011;2203;53.686;9.994;2022-08-25T03:54:02;6.20;;;4.27;;
4377;SDS011;2203;53.686;9.994;2022-08-25T03:56:29;12.60;;;4.43;;
4377;SDS011;2203;53.686;9.994;2022-08-25T03:58:55;6.93;;;4.20;;
4377;SDS011;2203;53.686;9.994;2022-08-25T04:01:20;8.27;;;5.03;;
4377;SDS011;2203;53.686;9.994;2022-08-25T04:03:46;5.53;;;4.63;;
4377;SDS011;2203;53.686;9.994;2022-08-25T04:06:12;12.87;;;5.33;;
4377;SDS011;2203;53.686;9.994;2022-08-25T04:08:39;9.33;;;5.07;;
4377;SDS011;2203;53.686;9.994;2022-08-25T04:11:14;11.03;;;5.10;;
4377;SDS011;2203;53.686;9.994;2022-08-25T04:13:44;8.40;;;4.70;;
4377;SDS011;2203;53.686;9.994;2022-08-25T04:16:15;13.03;;;6.00;;
4377;SDS011;2203;53.686;9.994;2022-08-25T04:18:43;7.80;;;4.97;;
4377;SDS011;2203;53.686;9.994;2022-08-25T04:21:09;9.90;;;5.30;;
4377;SDS011;2203;53.686;9.994;2022-08-25T04:23:36;12.63;;;4.77;;
4377;SDS011;2203;53.686;9.994;2022-08-25T04:26:15;7.47;;;5.10;;
4377;SDS011;2203;53.686;9.994;2022-08-25T04:28:43;7.53;;;4.83;;
4377;SDS011;2203;53.686;9.994;2022-08-25T04:31:11;10.60;;;5.10;;
4377;SDS011;2203;53.686;9.994;2022-08-25T04:33:38;15.03;;;4.80;;
4377;SDS011;2203;53.686;9.994;2022-08-25T04:36:05;10.17;;;5.27;;
4377;SDS011;2203;53.686;9.994;2022-08-25T04:38:31;12.63;;;5.37;;
4377;SDS011;2203;53.686;9.994;2022-08-25T04:40:58;11.00;;;4.63;;
4377;SDS011;2203;53.686;9.994;2022-08-25T04:43:24;15.67;;;5.27;;
4377;SDS011;2203;53.686;9.994;2022-08-25T04:45:49;9.90;;;4.67;;
4377;SDS011;2203;53.686;9.994;2022-08-25T04:48:16;15.17;;;5.63;;
4377;SDS011;2203;53.686;9.994;2022-08-25T04:50:41;14.67;;;6.17;;
4377;SDS011;2203;53.686;9.994;2022-08-25T04:53:07;14.13;;;5.20;;
4377;SDS011;2203;53.686;9.994;2022-08-25T04:55:32;9.63;;;4.97;;
4377;SDS011;2203;53.686;9.994;2022-08-25T04:58:05;21.73;;;5.63;;
4377;SDS011;2203;53.686;9.994;2022-08-25T05:00:30;9.30;;;5.40;;
4377;SDS011;2203;53.686;9.994;2022-08-25T05:02:58;5.77;;;4.50;;
4377;SDS011;2203;53.686;9.994;2022-08-25T05:05:24;9.60;;;5.40;;
4377;SDS011;2203;53.686;9.994;2022-08-25T05:07:49;9.53;;;5.20;;
4377;SDS011;2203;53.686;9.994;2022-08-25T05:10:14;15.23;;;6.03;;
4377;SDS011;2203;53.686;9.994;2022-08-25T05:12:40;9.73;;;5.87;;
4377;SDS011;2203;53.686;9.994;2022-08-25T05:15:05;13.40;;;7.33;;
4377;SDS011;2203;53.686;9.994;2022-08-25T05:17:51;15.17;;;7.23;;
4377;SDS011;2203;53.686;9.994;2022-08-25T05:20:16;14.40;;;7.03;;
4377;SDS011;2203;53.686;9.994;2022-08-25T05:22:43;19.83;;;8.50;;
4377;SDS011;2203;53.686;9.994;2022-08-25T05:25:10;11.20;;;6.90;;
4377;SDS011;2203;53.686;9.994;2022-08-25T05:27:36;13.63;;;7.80;;
4377;SDS011;2203;53.686;9.994;2022-08-25T05:30:01;11.43;;;8.47;;
4377;SDS011;2203;53.686;9.994;2022-08-25T05:32:27;15.50;;;7.93;;
4377;SDS011;2203;53.686;9.994;2022-08-25T05:34:52;10.13;;;7.80;;
4377;SDS011;2203;53.686;9.994;2022-08-25T05:37:18;11.07;;;7.70;;
4377;SDS011;2203;53.686;9.994;2022-08-25T05:39:43;13.00;;;8.20;;
4377;SDS011;2203;53.686;9.994;2022-08-25T05:42:09;13.97;;;8.70;;
4377;SDS011;2203;53.686;9.994;2022-08-25T05:44:34;13.97;;;8.97;;
4377;SDS011;2203;53.686;9.994;2022-08-25T05:47:00;12.80;;;8.50;;
4377;SDS011;2203;53.686;9.994;2022-08-25T05:49:25;14.17;;;9.53;;
4377;SDS011;2203;53.686;9.994;2022-08-25T05:51:51;13.07;;;9.30;;
4377;SDS011;2203;53.686;9.994;2022-08-25T05:54:16;12.90;;;9.50;;
4377;SDS011;2203;53.686;9.994;2022-08-25T05:56:42;18.27;;;9.97;;
4377;SDS011;2203;53.686;9.994;2022-08-25T05:59:09;15.07;;;10.50;;
4377;SDS011;2203;53.686;9.994;2022-08-25T06:01:34;18.80;;;10.60;;
4377;SDS011;2203;53.686;9.994;2022-08-25T06:04:18;14.63;;;10.60;;
4377;SDS011;2203;53.686;9.994;2022-08-25T06:06:44;18.30;;;12.07;;
4377;SDS011;2203;53.686;9.994;2022-08-25T06:09:10;18.00;;;11.47;;
4377;SDS011;2203;53.686;9.994;2022-08-25T06:11:36;19.30;;;11.60;;
4377;SDS011;2203;53.686;9.994;2022-08-25T06:14:03;19.73;;;12.60;;
4377;SDS011;2203;53.686;9.994;2022-08-25T06:16:29;22.23;;;13.97;;
4377;SDS011;2203;53.686;9.994;2022-08-25T06:18:55;21.20;;;13.40;;
4377;SDS011;2203;53.686;9.994;2022-08-25T06:21:20;23.00;;;14.50;;
4377;SDS011;2203;53.686;9.994;2022-08-25T06:23:45;22.63;;;14.93;;
4377;SDS011;2203;53.686;9.994;2022-08-25T06:26:13;22.33;;;15.40;;
4377;SDS011;2203;53.686;9.994;2022-08-25T06:28:38;25.23;;;15.90;;
4377;SDS011;2203;53.686;9.994;2022-08-25T06:31:04;27.30;;;17.40;;
4377;SDS011;2203;53.686;9.994;2022-08-25T06:33:30;32.30;;;17.70;;
4377;SDS011;2203;53.686;9.994;2022-08-25T06:35:56;27.47;;;17.40;;
4377;SDS011;2203;53.686;9.994;2022-08-25T06:38:22;29.50;;;17.47;;
4377;SDS011;2203;53.686;9.994;2022-08-25T06:40:48;30.43;;;17.90;;
4377;SDS011;2203;53.686;9.994;2022-08-25T06:43:14;32.03;;;19.00;;
4377;SDS011;2203;53.686;9.994;2022-08-25T06:45:40;33.23;;;19.53;;
4377;SDS011;2203;53.686;9.994;2022-08-25T06:48:08;28.10;;;18.17;;
4377;SDS011;2203;53.686;9.994;2022-08-25T06:50:33;26.00;;;17.10;;
4377;SDS011;2203;53.686;9.994;2022-08-25T06:52:59;28.13;;;17.27;;
4377;SDS011;2203;53.686;9.994;2022-08-25T06:55:24;24.67;;;16.63;;
4377;SDS011;2203;53.686;9.994;2022-08-25T06:57:53;26.10;;;15.60;;
4377;SDS011;2203;53.686;9.994;2022-08-25T07:00:18;23.83;;;14.70;;
4377;SDS011;2203;53.686;9.994;2022-08-25T07:02:44;24.63;;;16.20;;
4377;SDS011;2203;53.686;9.994;2022-08-25T07:05:11;25.80;;;14.93;;
4377;SDS011;2203;53.686;9.994;2022-08-25T07:07:36;22.90;;;16.13;;
4377;SDS011;2203;53.686;9.994;2022-08-25T07:10:02;24.13;;;16.77;;
4377;SDS011;2203;53.686;9.994;2022-08-25T07:12:28;24.33;;;16.10;;
4377;SDS011;2203;53.686;9.994;2022-08-25T07:14:53;23.63;;;15.67;;
4377;SDS011;2203;53.686;9.994;2022-08-25T07:17:20;23.00;;;15.70;;
4377;SDS011;2203;53.686;9.994;2022-08-25T07:19:47;26.20;;;17.40;;
4377;SDS011;2203;53.686;9.994;2022-08-25T07:22:13;23.87;;;16.37;;
4377;SDS011;2203;53.686;9.994;2022-08-25T07:24:38;23.13;;;15.47;;
4377;SDS011;2203;53.686;9.994;2022-08-25T07:27:03;21.10;;;14.77;;
4377;SDS011;2203;53.686;9.994;2022-08-25T07:29:29;24.37;;;15.10;;
4377;SDS011;2203;53.686;9.994;2022-08-25T07:31:56;24.60;;;15.50;;
4377;SDS011;2203;53.686;9.994;2022-08-25T07:34:22;27.50;;;13.63;;
4377;SDS011;2203;53.686;9.994;2022-08-25T07:37:08;21.67;;;12.80;;
4377;SDS011;2203;53.686;9.994;2022-08-25T07:39:33;21.57;;;14.70;;
4377;SDS011;2203;53.686;9.994;2022-08-25T07:41:59;23.37;;;14.97;;
4377;SDS011;2203;53.686;9.994;2022-08-25T07:44:25;23.60;;;13.10;;
4377;SDS011;2203;53.686;9.994;2022-08-25T07:46:51;16.60;;;12.83;;
4377;SDS011;2203;53.686;9.994;2022-08-25T07:49:20;19.20;;;13.40;;
4377;SDS011;2203;53.686;9.994;2022-08-25T07:51:46;17.53;;;12.70;;
4377;SDS011;2203;53.686;9.994;2022-08-25T07:54:12;27.20;;;12.50;;
4377;SDS011;2203;53.686;9.994;2022-08-25T07:56:38;21.00;;;12.80;;
4377;SDS011;2203;53.686;9.994;2022-08-25T07:59:06;20.67;;;12.77;;
4377;SDS011;2203;53.686;9.994;2022-08-25T08:01:31;37.53;;;14.30;;
4377;SDS011;2203;53.686;9.994;2022-08-25T08:03:57;17.43;;;12.40;;
4377;SDS011;2203;53.686;9.994;2022-08-25T08:06:22;21.30;;;12.80;;
4377;SDS011;2203;53.686;9.994;2022-08-25T08:08:49;19.43;;;12.20;;
4377;SDS011;2203;53.686;9.994;2022-08-25T08:11:15;22.23;;;11.87;;
4377;SDS011;2203;53.686;9.994;2022-08-25T08:13:41;18.30;;;12.33;;
4377;SDS011;2203;53.686;9.994;2022-08-25T08:16:10;16.20;;;12.27;;
4377;SDS011;2203;53.686;9.994;2022-08-25T08:18:37;19.60;;;12.63;;
4377;SDS011;2203;53.686;9.994;2022-08-25T08:21:02;19.33;;;13.23;;
4377;SDS011;2203;53.686;9.994;2022-08-25T08:23:28;16.30;;;12.40;;
4377;SDS011;2203;53.686;9.994;2022-08-25T08:25:54;19.43;;;13.33;;
4377;SDS011;2203;53.686;9.994;2022-08-25T08:28:20;27.30;;;12.57;;
4377;SDS011;2203;53.686;9.994;2022-08-25T08:30:46;22.93;;;12.83;;
4377;SDS011;2203;53.686;9.994;2022-08-25T08:33:12;17.30;;;12.23;;
4377;SDS011;2203;53.686;9.994;2022-08-25T08:35:38;18.33;;;12.40;;
4377;SDS011;2203;53.686;9.994;2022-08-25T08:38:05;17.93;;;12.70;;
4377;SDS011;2203;53.686;9.994;2022-08-25T08:40:30;19.27;;;12.30;;
4377;SDS011;2203;53.686;9.994;2022-08-25T08:43:02;17.43;;;11.47;;
4377;SDS011;2203;53.686;9.994;2022-08-25T08:45:32;19.40;;;12.23;;
4377;SDS011;2203;53.686;9.994;2022-08-25T08:48:16;16.53;;;11.70;;
4377;SDS011;2203;53.686;9.994;2022-08-25T08:56:20;20.37;;;11.30;;
4377;SDS011;2203;53.686;9.994;2022-08-25T08:58:55;14.20;;;10.47;;
4377;SDS011;2203;53.686;9.994;2022-08-25T09:01:52;13.57;;;10.83;;
4377;SDS011;2203;53.686;9.994;2022-08-25T09:04:28;17.93;;;12.27;;
4377;SDS011;2203;53.686;9.994;2022-08-25T09:06:57;11.37;;;8.47;;
4377;SDS011;2203;53.686;9.994;2022-08-25T09:09:28;17.33;;;12.23;;
4377;SDS011;2203;53.686;9.994;2022-08-25T09:25:22;22.93;;;16.13;;
4377;SDS011;2203;53.686;9.994;2022-08-25T09:30:26;20.63;;;13.47;;
4377;SDS011;2203;53.686;9.994;2022-08-25T09:32:53;10.60;;;5.40;;
4377;SDS011;2203;53.686;9.994;2022-08-25T09:35:28;20.47;;;12.30;;
4377;SDS011;2203;53.686;9.994;2022-08-25T09:40:21;17.10;;;10.00;;
4377;SDS011;2203;53.686;9.994;2022-08-25T09:42:49;12.93;;;9.27;;
4377;SDS011;2203;53.686;9.994;2022-08-25T09:45:29;11.23;;;8.90;;
4377;SDS011;2203;53.686;9.994;2022-08-25T09:48:22;20.57;;;9.33;;
4377;SDS011;2203;53.686;9.994;2022-08-25T09:50:52;33.57;;;7.73;;
4377;SDS011;2203;53.686;9.994;2022-08-25T09:53:22;13.23;;;7.33;;
4377;SDS011;2203;53.686;9.994;2022-08-25T09:55:51;18.47;;;6.67;;
4377;SDS011;2203;53.686;9.994;2022-08-25T09:58:22;20.30;;;6.57;;
4377;SDS011;2203;53.686;9.994;2022-08-25T10:01:05;13.50;;;6.43;;
4377;SDS011;2203;53.686;9.994;2022-08-25T10:03:32;9.47;;;5.70;;
4377;SDS011;2203;53.686;9.994;2022-08-25T10:11:02;9.77;;;6.47;;
4377;SDS011;2203;53.686;9.994;2022-08-25T10:13:34;13.00;;;5.23;;
4377;SDS011;2203;53.686;9.994;2022-08-25T10:16:10;11.00;;;5.53;;
4377;SDS011;2203;53.686;9.994;2022-08-25T10:18:58;17.67;;;5.57;;
4377;SDS011;2203;53.686;9.994;2022-08-25T10:22:09;15.53;;;5.63;;
4377;SDS011;2203;53.686;9.994;2022-08-25T10:24:34;7.10;;;4.57;;
4377;SDS011;2203;53.686;9.994;2022-08-25T10:32:17;9.97;;;4.87;;
4377;SDS011;2203;53.686;9.994;2022-08-25T10:34:53;18.80;;;5.07;;
4377;SDS011;2203;53.686;9.994;2022-08-25T10:45:27;10.40;;;5.63;;
4377;SDS011;2203;53.686;9.994;2022-08-25T10:56:30;26.67;;;5.97;;
4377;SDS011;2203;53.686;9.994;2022-08-25T11:02:07;17.30;;;4.70;;
4377;SDS011;2203;53.686;9.994;2022-08-25T11:05:09;10.43;;;4.80;;
4377;SDS011;2203;53.686;9.994;2022-08-25T11:07:47;16.10;;;4.33;;
4377;SDS011;2203;53.686;9.994;2022-08-25T11:10:16;10.63;;;4.90;;
4377;SDS011;2203;53.686;9.994;2022-08-25T11:12:46;7.87;;;3.90;;
4377;SDS011;2203;53.686;9.994;2022-08-25T11:20:15;11.30;;;4.13;;
4377;SDS011;2203;53.686;9.994;2022-08-25T11:22:45;11.00;;;4.00;;
4377;SDS011;2203;53.686;9.994;2022-08-25T11:25:25;17.03;;;4.13;;
4377;SDS011;2203;53.686;9.994;2022-08-25T11:27:56;13.87;;;4.40;;
4377;SDS011;2203;53.686;9.994;2022-08-25T11:30:23;14.10;;;4.03;;
4377;SDS011;2203;53.686;9.994;2022-08-25T11:32:49;26.23;;;3.77;;
4377;SDS011;2203;53.686;9.994;2022-08-25T11:35:27;7.73;;;3.77;;
4377;SDS011;2203;53.686;9.994;2022-08-25T11:40:37;14.00;;;4.00;;
4377;SDS011;2203;53.686;9.994;2022-08-25T11:51:50;8.27;;;3.67;;
4377;SDS011;2203;53.686;9.994;2022-08-25T11:54:23;8.90;;;4.43;;
4377;SDS011;2203;53.686;9.994;2022-08-25T12:05:08;13.00;;;4.00;;
4377;SDS011;2203;53.686;9.994;2022-08-25T12:10:17;8.77;;;3.40;;
4377;SDS011;2203;53.686;9.994;2022-08-25T12:23:26;6.10;;;3.00;;
4377;SDS011;2203;53.686;9.994;2022-08-25T12:26:03;5.60;;;3.30;;
4377;SDS011;2203;53.686;9.994;2022-08-25T12:31:14;9.73;;;4.23;;
4377;SDS011;2203;53.686;9.994;2022-08-25T12:33:50;7.00;;;3.47;;
4377;SDS011;2203;53.686;9.994;2022-08-25T12:36:29;7.17;;;3.53;;
4377;SDS011;2203;53.686;9.994;2022-08-25T12:39:17;9.73;;;3.43;;
4377;SDS011;2203;53.686;9.994;2022-08-25T12:42:20;6.30;;;3.77;;
4377;SDS011;2203;53.686;9.994;2022-08-25T12:45:08;7.07;;;3.37;;
4377;SDS011;2203;53.686;9.994;2022-08-25T12:47:34;4.40;;;3.30;;
4377;SDS011;2203;53.686;9.994;2022-08-25T12:53:10;6.17;;;3.20;;
4377;SDS011;2203;53.686;9.994;2022-08-25T12:55:37;9.57;;;3.20;;
4377;SDS011;2203;53.686;9.994;2022-08-25T12:58:06;8.73;;;3.00;;
4377;SDS011;2203;53.686;9.994;2022-08-25T13:00:53;7.10;;;3.10;;
4377;SDS011;2203;53.686;9.994;2022-08-25T13:03:32;8.10;;;3.20;;
4377;SDS011;2203;53.686;9.994;2022-08-25T13:09:07;5.90;;;3.80;;
4377;SDS011;2203;53.686;9.994;2022-08-25T13:14:37;8.80;;;3.80;;
4377;SDS011;2203;53.686;9.994;2022-08-25T13:17:05;9.00;;;3.30;;
4377;SDS011;2203;53.686;9.994;2022-08-25T13:19:31;5.47;;;3.30;;
4377;SDS011;2203;53.686;9.994;2022-08-25T13:21:57;9.47;;;3.30;;
4377;SDS011;2203;53.686;9.994;2022-08-25T13:24:28;5.97;;;3.20;;
4377;SDS011;2203;53.686;9.994;2022-08-25T13:26:58;5.33;;;2.97;;
4377;SDS011;2203;53.686;9.994;2022-08-25T13:29:28;3.90;;;2.80;;
4377;SDS011;2203;53.686;9.994;2022-08-25T13:31:56;12.27;;;3.17;;
4377;SDS011;2203;53.686;9.994;2022-08-25T13:34:31;11.67;;;3.70;;
4377;SDS011;2203;53.686;9.994;2022-08-25T13:37:06;6.70;;;3.20;;
4377;SDS011;2203;53.686;9.994;2022-08-25T13:40:12;8.10;;;3.80;;
4377;SDS011;2203;53.686;9.994;2022-08-25T13:42:47;11.70;;;2.70;;
4377;SDS011;2203;53.686;9.994;2022-08-25T13:45:25;5.33;;;3.13;;
4377;SDS011;2203;53.686;9.994;2022-08-25T13:47:52;6.83;;;3.00;;
4377;SDS011;2203;53.686;9.994;2022-08-25T13:52:52;12.20;;;3.50;;
4377;SDS011;2203;53.686;9.994;2022-08-25T13:55:21;5.70;;;3.37;;
4377;SDS011;2203;53.686;9.994;2022-08-25T13:57:49;9.63;;;3.10;;
4377;SDS011;2203;53.686;9.994;2022-08-25T14:00:25;6.80;;;3.10;;
4377;SDS011;2203;53.686;9.994;2022-08-25T14:02:52;5.33;;;2.70;;
4377;SDS011;2203;53.686;9.994;2022-08-25T14:07:56;4.20;;;2.90;;
4377;SDS011;2203;53.686;9.994;2022-08-25T14:10:43;9.67;;;3.20;;
4377;SDS011;2203;53.686;9.994;2022-08-25T14:13:12;10.20;;;2.97;;
4377;SDS011;2203;53.686;9.994;2022-08-25T14:15:44;7.77;;;2.77;;
4377;SDS011;2203;53.686;9.994;2022-08-25T14:20:50;7.10;;;3.10;;
4377;SDS011;2203;53.686;9.994;2022-08-25T14:23:22;9.20;;;3.40;;
4377;SDS011;2203;53.686;9.994;2022-08-25T14:25:51;8.40;;;3.00;;
4377;SDS011;2203;53.686;9.994;2022-08-25T14:28:18;9.33;;;2.90;;
4377;SDS011;2203;53.686;9.994;2022-08-25T14:30:47;7.80;;;3.00;;
4377;SDS011;2203;53.686;9.994;2022-08-25T14:33:14;6.90;;;2.93;;
4377;SDS011;2203;53.686;9.994;2022-08-25T14:35:41;7.03;;;4.00;;
4377;SDS011;2203;53.686;9.994;2022-08-25T14:38:09;4.23;;;2.70;;
4377;SDS011;2203;53.686;9.994;2022-08-25T14:40:35;11.67;;;3.23;;
4377;SDS011;2203;53.686;9.994;2022-08-25T14:43:01;6.37;;;3.20;;
4377;SDS011;2203;53.686;9.994;2022-08-25T14:45:26;8.83;;;3.43;;
4377;SDS011;2203;53.686;9.994;2022-08-25T14:47:52;11.57;;;3.30;;
4377;SDS011;2203;53.686;9.994;2022-08-25T14:50:18;6.67;;;3.40;;
4377;SDS011;2203;53.686;9.994;2022-08-25T14:52:44;8.60;;;3.53;;
4377;SDS011;2203;53.686;9.994;2022-08-25T14:55:09;3.50;;;3.17;;
4377;SDS011;2203;53.686;9.994;2022-08-25T14:57:37;4.07;;;3.33;;
4377;SDS011;2203;53.686;9.994;2022-08-25T15:00:03;6.33;;;4.00;;
4377;SDS011;2203;53.686;9.994;2022-08-25T15:02:32;10.87;;;3.83;;
4377;SDS011;2203;53.686;9.994;2022-08-25T15:05:00;9.17;;;3.90;;
4377;SDS011;2203;53.686;9.994;2022-08-25T15:07:30;13.63;;;3.57;;
4377;SDS011;2203;53.686;9.994;2022-08-25T15:10:15;8.90;;;5.47;;
4377;SDS011;2203;53.686;9.994;2022-08-25T15:12:41;6.30;;;4.70;;
4377;SDS011;2203;53.686;9.994;2022-08-25T15:15:06;6.50;;;3.80;;
4377;SDS011;2203;53.686;9.994;2022-08-25T15:17:33;7.53;;;3.90;;
4377;SDS011;2203;53.686;9.994;2022-08-25T15:19:59;5.13;;;3.70;;
4377;SDS011;2203;53.686;9.994;2022-08-25T15:22:24;6.30;;;4.10;;
4377;SDS011;2203;53.686;9.994;2022-08-25T15:24:50;7.57;;;3.67;;
4377;SDS011;2203;53.686;9.994;2022-08-25T15:27:17;12.47;;;5.00;;
4377;SDS011;2203;53.686;9.994;2022-08-25T15:29:43;7.57;;;3.27;;
4377;SDS011;2203;53.686;9.994;2022-08-25T15:32:08;8.50;;;4.10;;
4377;SDS011;2203;53.686;9.994;2022-08-25T15:34:34;7.53;;;3.30;;
4377;SDS011;2203;53.686;9.994;2022-08-25T15:37:05;8.53;;;3.90;;
4377;SDS011;2203;53.686;9.994;2022-08-25T15:39:34;4.33;;;3.53;;
4377;SDS011;2203;53.686;9.994;2022-08-25T15:42:00;6.47;;;4.10;;
4377;SDS011;2203;53.686;9.994;2022-08-25T15:44:26;4.37;;;3.93;;
4377;SDS011;2203;53.686;9.994;2022-08-25T15:46:51;6.80;;;4.20;;
4377;SDS011;2203;53.686;9.994;2022-08-25T15:49:17;7.43;;;3.50;;
4377;SDS011;2203;53.686;9.994;2022-08-25T15:51:43;5.47;;;3.30;;
4377;SDS011;2203;53.686;9.994;2022-08-25T15:54:09;8.30;;;3.80;;
4377;SDS011;2203;53.686;9.994;2022-08-25T15:56:35;6.57;;;3.80;;
4377;SDS011;2203;53.686;9.994;2022-08-25T15:59:02;9.30;;;3.97;;
4377;SDS011;2203;53.686;9.994;2022-08-25T16:01:28;11.63;;;3.70;;
4377;SDS011;2203;53.686;9.994;2022-08-25T16:03:54;8.20;;;3.43;;
4377;SDS011;2203;53.686;9.994;2022-08-25T16:06:19;10.57;;;4.00;;
4377;SDS011;2203;53.686;9.994;2022-08-25T16:08:45;14.23;;;3.00;;
4377;SDS011;2203;53.686;9.994;2022-08-25T16:11:19;7.60;;;3.47;;
4377;SDS011;2203;53.686;9.994;2022-08-25T16:13:46;8.07;;;3.43;;
4377;SDS011;2203;53.686;9.994;2022-08-25T16:16:12;5.10;;;3.00;;
4377;SDS011;2203;53.686;9.994;2022-08-25T16:18:39;11.90;;;3.23;;
4377;SDS011;2203;53.686;9.994;2022-08-25T16:21:07;6.43;;;3.37;;
4377;SDS011;2203;53.686;9.994;2022-08-25T16:23:37;14.07;;;4.20;;
4377;SDS011;2203;53.686;9.994;2022-08-25T16:26:04;10.93;;;4.30;;
4377;SDS011;2203;53.686;9.994;2022-08-25T16:28:32;7.30;;;3.60;;
4377;SDS011;2203;53.686;9.994;2022-08-25T16:30:58;30.27;;;18.13;;
4377;SDS011;2203;53.686;9.994;2022-08-25T16:33:24;13.27;;;5.37;;
4377;SDS011;2203;53.686;9.994;2022-08-25T16:35:50;6.50;;;3.73;;
4377;SDS011;2203;53.686;9.994;2022-08-25T16:38:15;19.50;;;10.43;;
4377;SDS011;2203;53.686;9.994;2022-08-25T16:40:41;8.43;;;4.10;;
4377;SDS011;2203;53.686;9.994;2022-08-25T16:43:07;13.40;;;3.90;;
4377;SDS011;2203;53.686;9.994;2022-08-25T16:45:33;14.07;;;2.97;;
4377;SDS011;2203;53.686;9.994;2022-08-25T16:47:59;14.00;;;4.17;;
4377;SDS011;2203;53.686;9.994;2022-08-25T16:50:25;7.53;;;2.80;;
4377;SDS011;2203;53.686;9.994;2022-08-25T16:52:50;10.30;;;3.63;;
4377;SDS011;2203;53.686;9.994;2022-08-25T16:55:34;9.07;;;3.70;;
4377;SDS011;2203;53.686;9.994;2022-08-25T16:58:00;13.30;;;3.80;;
4377;SDS011;2203;53.686;9.994;2022-08-25T17:00:26;8.60;;;3.37;;
4377;SDS011;2203;53.686;9.994;2022-08-25T17:02:54;12.83;;;3.77;;
4377;SDS011;2203;53.686;9.994;2022-08-25T17:05:23;9.00;;;4.10;;
4377;SDS011;2203;53.686;9.994;2022-08-25T17:07:50;20.87;;;3.47;;
4377;SDS011;2203;53.686;9.994;2022-08-25T17:10:35;10.10;;;3.73;;